Schedule Details


Flight Number: CTN4405
Departure: Frankfurt/main (EDDF) at 10:25
Arrival: Pula (LDPL) at 11:55
Route: NOMBO UZ738 MUN UM867 VAROB DCT VEKEN Y66 KANIN DCT GIRDA

Weather Information
EDDF 221550Z 21006KT CAVOK 23/09 Q1009 NOSIG
LDPL 221530Z 13005KT 080V160 9999 FEW023 BKN033 20/16 Q1016 NOSIG
Schedule Frequency

Route Map